sensor_id;sensor_type;location;lat;lon;timestamp;P1;durP1;ratioP1;P2;durP2;ratioP2
52956;SDS011;38819;42.692;23.342;2023-04-01T00:01:30;23.42;;;13.10;;
52956;SDS011;38819;42.692;23.342;2023-04-01T00:03:56;23.67;;;12.63;;
52956;SDS011;38819;42.692;23.342;2023-04-01T00:06:21;19.48;;;11.32;;
52956;SDS011;38819;42.692;23.342;2023-04-01T00:08:47;27.83;;;12.13;;
52956;SDS011;38819;42.692;23.342;2023-04-01T00:11:13;27.27;;;11.75;;
52956;SDS011;38819;42.692;23.342;2023-04-01T00:13:39;21.53;;;12.27;;
52956;SDS011;38819;42.692;23.342;2023-04-01T00:16:05;26.02;;;12.13;;
52956;SDS011;38819;42.692;23.342;2023-04-01T00:18:32;15.20;;;7.90;;
52956;SDS011;38819;42.692;23.342;2023-04-01T00:20:57;18.55;;;11.63;;
52956;SDS011;38819;42.692;23.342;2023-04-01T00:23:23;19.60;;;11.23;;
52956;SDS011;38819;42.692;23.342;2023-04-01T00:25:48;21.95;;;11.85;;
52956;SDS011;38819;42.692;23.342;2023-04-01T00:28:18;19.35;;;12.20;;
52956;SDS011;38819;42.692;23.342;2023-04-01T00:30:45;23.75;;;10.95;;
52956;SDS011;38819;42.692;23.342;2023-04-01T00:33:11;19.90;;;11.27;;
52956;SDS011;38819;42.692;23.342;2023-04-01T00:35:37;24.92;;;12.32;;
52956;SDS011;38819;42.692;23.342;2023-04-01T00:38:03;36.70;;;12.73;;
52956;SDS011;38819;42.692;23.342;2023-04-01T00:40:33;24.38;;;13.07;;
52956;SDS011;38819;42.692;23.342;2023-04-01T00:43:01;23.70;;;12.85;;
52956;SDS011;38819;42.692;23.342;2023-04-01T00:45:32;28.23;;;12.90;;
52956;SDS011;38819;42.692;23.342;2023-04-01T00:48:22;24.13;;;12.40;;
52956;SDS011;38819;42.692;23.342;2023-04-01T00:50:49;24.08;;;11.07;;
52956;SDS011;38819;42.692;23.342;2023-04-01T00:53:19;20.42;;;11.55;;
52956;SDS011;38819;42.692;23.342;2023-04-01T00:55:49;24.53;;;12.03;;
52956;SDS011;38819;42.692;23.342;2023-04-01T00:58:23;20.42;;;10.77;;
52956;SDS011;38819;42.692;23.342;2023-04-01T01:00:51;19.10;;;10.88;;
52956;SDS011;38819;42.692;23.342;2023-04-01T01:03:17;18.08;;;10.50;;
52956;SDS011;38819;42.692;23.342;2023-04-01T01:08:15;19.08;;;9.88;;
52956;SDS011;38819;42.692;23.342;2023-04-01T01:10:52;17.90;;;10.00;;
52956;SDS011;38819;42.692;23.342;2023-04-01T01:13:40;24.10;;;9.75;;
52956;SDS011;38819;42.692;23.342;2023-04-01T01:16:16;25.20;;;10.02;;
52956;SDS011;38819;42.692;23.342;2023-04-01T01:27:17;17.50;;;9.48;;
52956;SDS011;38819;42.692;23.342;2023-04-01T01:35:19;21.50;;;10.55;;
52956;SDS011;38819;42.692;23.342;2023-04-01T01:37:56;14.98;;;9.05;;
52956;SDS011;38819;42.692;23.342;2023-04-01T01:40:33;16.50;;;9.05;;
52956;SDS011;38819;42.692;23.342;2023-04-01T01:43:03;26.40;;;9.05;;
52956;SDS011;38819;42.692;23.342;2023-04-01T01:45:32;16.25;;;8.88;;
52956;SDS011;38819;42.692;23.342;2023-04-01T01:48:00;14.82;;;9.48;;
52956;SDS011;38819;42.692;23.342;2023-04-01T01:50:29;18.80;;;7.53;;
52956;SDS011;38819;42.692;23.342;2023-04-01T01:53:02;14.05;;;7.50;;
52956;SDS011;38819;42.692;23.342;2023-04-01T01:55:34;19.77;;;8.73;;
52956;SDS011;38819;42.692;23.342;2023-04-01T01:58:04;19.63;;;7.75;;
52956;SDS011;38819;42.692;23.342;2023-04-01T02:00:35;19.60;;;6.97;;
52956;SDS011;38819;42.692;23.342;2023-04-01T02:03:01;16.67;;;7.47;;
52956;SDS011;38819;42.692;23.342;2023-04-01T02:05:27;20.10;;;7.90;;
52956;SDS011;38819;42.692;23.342;2023-04-01T02:07:58;17.58;;;7.30;;
52956;SDS011;38819;42.692;23.342;2023-04-01T02:10:31;16.52;;;8.13;;
52956;SDS011;38819;42.692;23.342;2023-04-01T02:13:04;20.17;;;7.47;;
52956;SDS011;38819;42.692;23.342;2023-04-01T02:15:36;19.80;;;6.63;;
52956;SDS011;38819;42.692;23.342;2023-04-01T02:18:06;11.40;;;6.72;;
52956;SDS011;38819;42.692;23.342;2023-04-01T02:20:33;14.30;;;7.05;;
52956;SDS011;38819;42.692;23.342;2023-04-01T02:23:00;12.75;;;7.15;;
52956;SDS011;38819;42.692;23.342;2023-04-01T02:25:27;17.90;;;7.72;;
52956;SDS011;38819;42.692;23.342;2023-04-01T02:27:58;16.88;;;7.75;;
52956;SDS011;38819;42.692;23.342;2023-04-01T02:30:26;13.55;;;6.70;;
52956;SDS011;38819;42.692;23.342;2023-04-01T02:32:55;14.32;;;6.82;;
52956;SDS011;38819;42.692;23.342;2023-04-01T02:35:23;12.32;;;6.22;;
52956;SDS011;38819;42.692;23.342;2023-04-01T02:37:51;21.30;;;7.45;;
52956;SDS011;38819;42.692;23.342;2023-04-01T02:40:18;14.63;;;7.65;;
52956;SDS011;38819;42.692;23.342;2023-04-01T02:42:44;15.25;;;7.07;;
52956;SDS011;38819;42.692;23.342;2023-04-01T02:45:10;17.52;;;7.78;;
52956;SDS011;38819;42.692;23.342;2023-04-01T02:47:37;17.48;;;7.35;;
52956;SDS011;38819;42.692;23.342;2023-04-01T02:50:03;17.42;;;8.32;;
52956;SDS011;38819;42.692;23.342;2023-04-01T02:52:29;18.52;;;8.38;;
52956;SDS011;38819;42.692;23.342;2023-04-01T02:54:55;19.90;;;8.82;;
52956;SDS011;38819;42.692;23.342;2023-04-01T02:57:21;25.17;;;10.88;;
52956;SDS011;38819;42.692;23.342;2023-04-01T02:59:47;15.48;;;10.55;;
52956;SDS011;38819;42.692;23.342;2023-04-01T03:02:13;20.10;;;11.30;;
52956;SDS011;38819;42.692;23.342;2023-04-01T03:04:39;20.92;;;11.75;;
52956;SDS011;38819;42.692;23.342;2023-04-01T03:07:05;19.17;;;11.13;;
52956;SDS011;38819;42.692;23.342;2023-04-01T03:09:30;21.50;;;10.80;;
52956;SDS011;38819;42.692;23.342;2023-04-01T03:11:56;21.20;;;10.30;;
52956;SDS011;38819;42.692;23.342;2023-04-01T03:14:21;24.30;;;10.05;;
52956;SDS011;38819;42.692;23.342;2023-04-01T03:16:47;25.83;;;10.63;;
52956;SDS011;38819;42.692;23.342;2023-04-01T03:19:12;23.33;;;10.27;;
52956;SDS011;38819;42.692;23.342;2023-04-01T03:21:38;23.83;;;9.75;;
52956;SDS011;38819;42.692;23.342;2023-04-01T03:24:03;28.95;;;11.18;;
52956;SDS011;38819;42.692;23.342;2023-04-01T03:26:29;16.05;;;10.57;;
52956;SDS011;38819;42.692;23.342;2023-04-01T03:28:55;21.88;;;10.75;;
52956;SDS011;38819;42.692;23.342;2023-04-01T03:31:20;20.98;;;10.32;;
52956;SDS011;38819;42.692;23.342;2023-04-01T03:33:46;22.10;;;11.15;;
52956;SDS011;38819;42.692;23.342;2023-04-01T03:36:12;26.95;;;11.32;;
52956;SDS011;38819;42.692;23.342;2023-04-01T03:38:39;18.45;;;10.45;;
52956;SDS011;38819;42.692;23.342;2023-04-01T03:43:31;21.88;;;10.10;;
52956;SDS011;38819;42.692;23.342;2023-04-01T03:45:57;20.45;;;10.40;;
52956;SDS011;38819;42.692;23.342;2023-04-01T03:48:23;25.35;;;11.10;;
52956;SDS011;38819;42.692;23.342;2023-04-01T03:50:50;20.42;;;10.15;;
52956;SDS011;38819;42.692;23.342;2023-04-01T03:53:16;19.80;;;10.25;;
52956;SDS011;38819;42.692;23.342;2023-04-01T03:55:41;21.02;;;10.73;;
52956;SDS011;38819;42.692;23.342;2023-04-01T03:58:07;21.85;;;10.70;;
52956;SDS011;38819;42.692;23.342;2023-04-01T04:00:33;18.17;;;9.60;;
52956;SDS011;38819;42.692;23.342;2023-04-01T04:02:58;19.73;;;10.45;;
52956;SDS011;38819;42.692;23.342;2023-04-01T04:05:24;20.33;;;10.27;;
52956;SDS011;38819;42.692;23.342;2023-04-01T04:07:51;20.98;;;10.30;;
52956;SDS011;38819;42.692;23.342;2023-04-01T04:10:17;20.40;;;9.93;;
52956;SDS011;38819;42.692;23.342;2023-04-01T04:12:43;17.75;;;9.75;;
52956;SDS011;38819;42.692;23.342;2023-04-01T04:15:09;20.10;;;10.05;;
52956;SDS011;38819;42.692;23.342;2023-04-01T04:17:35;16.38;;;9.52;;
52956;SDS011;38819;42.692;23.342;2023-04-01T04:20:01;19.73;;;9.27;;
52956;SDS011;38819;42.692;23.342;2023-04-01T04:22:26;19.40;;;9.25;;
52956;SDS011;38819;42.692;23.342;2023-04-01T04:24:53;22.73;;;9.55;;
52956;SDS011;38819;42.692;23.342;2023-04-01T04:27:19;25.25;;;9.55;;
52956;SDS011;38819;42.692;23.342;2023-04-01T04:29:44;18.83;;;9.18;;
52956;SDS011;38819;42.692;23.342;2023-04-01T04:32:10;13.95;;;7.38;;
52956;SDS011;38819;42.692;23.342;2023-04-01T04:34:35;16.98;;;7.63;;
52956;SDS011;38819;42.692;23.342;2023-04-01T04:37:01;15.90;;;7.70;;
52956;SDS011;38819;42.692;23.342;2023-04-01T04:39:27;20.23;;;8.75;;
52956;SDS011;38819;42.692;23.342;2023-04-01T04:41:52;19.42;;;8.70;;
52956;SDS011;38819;42.692;23.342;2023-04-01T04:44:18;16.23;;;9.02;;
52956;SDS011;38819;42.692;23.342;2023-04-01T04:46:43;20.63;;;10.13;;
52956;SDS011;38819;42.692;23.342;2023-04-01T04:49:08;21.60;;;8.77;;
52956;SDS011;38819;42.692;23.342;2023-04-01T04:51:34;18.77;;;8.15;;
52956;SDS011;38819;42.692;23.342;2023-04-01T04:54:01;15.25;;;8.35;;
52956;SDS011;38819;42.692;23.342;2023-04-01T04:56:27;12.17;;;5.27;;
52956;SDS011;38819;42.692;23.342;2023-04-01T04:58:53;10.50;;;6.45;;
52956;SDS011;38819;42.692;23.342;2023-04-01T05:01:19;21.17;;;6.97;;
52956;SDS011;38819;42.692;23.342;2023-04-01T05:03:44;16.48;;;7.22;;
52956;SDS011;38819;42.692;23.342;2023-04-01T05:06:12;15.07;;;7.07;;
52956;SDS011;38819;42.692;23.342;2023-04-01T05:08:39;14.52;;;6.65;;
52956;SDS011;38819;42.692;23.342;2023-04-01T05:11:07;7.82;;;5.70;;
52956;SDS011;38819;42.692;23.342;2023-04-01T05:13:36;12.32;;;6.75;;
52956;SDS011;38819;42.692;23.342;2023-04-01T05:16:01;16.48;;;7.25;;
52956;SDS011;38819;42.692;23.342;2023-04-01T05:18:27;12.07;;;6.22;;
52956;SDS011;38819;42.692;23.342;2023-04-01T05:20:53;15.55;;;7.03;;
52956;SDS011;38819;42.692;23.342;2023-04-01T05:23:20;20.77;;;7.50;;
52956;SDS011;38819;42.692;23.342;2023-04-01T05:25:47;23.30;;;7.35;;
52956;SDS011;38819;42.692;23.342;2023-04-01T05:28:14;18.33;;;6.85;;
52956;SDS011;38819;42.692;23.342;2023-04-01T05:30:40;13.05;;;7.25;;
52956;SDS011;38819;42.692;23.342;2023-04-01T05:33:07;16.83;;;11.10;;
52956;SDS011;38819;42.692;23.342;2023-04-01T05:35:33;28.02;;;7.35;;
52956;SDS011;38819;42.692;23.342;2023-04-01T05:37:59;13.73;;;6.70;;
52956;SDS011;38819;42.692;23.342;2023-04-01T05:40:24;21.45;;;7.80;;
52956;SDS011;38819;42.692;23.342;2023-04-01T05:42:50;13.43;;;6.43;;
52956;SDS011;38819;42.692;23.342;2023-04-01T05:45:15;19.38;;;7.75;;
52956;SDS011;38819;42.692;23.342;2023-04-01T05:47:41;19.23;;;7.45;;
52956;SDS011;38819;42.692;23.342;2023-04-01T05:50:08;24.40;;;7.65;;
52956;SDS011;38819;42.692;23.342;2023-04-01T05:52:35;13.75;;;6.53;;
52956;SDS011;38819;42.692;23.342;2023-04-01T05:55:01;13.02;;;6.35;;
52956;SDS011;38819;42.692;23.342;2023-04-01T05:57:26;13.82;;;6.18;;
52956;SDS011;38819;42.692;23.342;2023-04-01T05:59:52;12.88;;;6.85;;
52956;SDS011;38819;42.692;23.342;2023-04-01T06:02:17;8.70;;;5.70;;
52956;SDS011;38819;42.692;23.342;2023-04-01T06:04:43;8.77;;;4.90;;
52956;SDS011;38819;42.692;23.342;2023-04-01T06:07:13;12.50;;;4.47;;
52956;SDS011;38819;42.692;23.342;2023-04-01T06:09:40;15.70;;;5.43;;
52956;SDS011;38819;42.692;23.342;2023-04-01T06:39:30;13.30;;;5.15;;
52956;SDS011;38819;42.692;23.342;2023-04-01T06:48:08;10.18;;;5.22;;
52956;SDS011;38819;42.692;23.342;2023-04-01T06:53:44;12.90;;;4.63;;
52956;SDS011;38819;42.692;23.342;2023-04-01T06:56:16;7.63;;;4.60;;
52956;SDS011;38819;42.692;23.342;2023-04-01T06:58:54;8.82;;;4.97;;
52956;SDS011;38819;42.692;23.342;2023-04-01T07:02:05;13.15;;;5.40;;
52956;SDS011;38819;42.692;23.342;2023-04-01T07:04:23;23.35;;;5.85;;
52956;SDS011;38819;42.692;23.342;2023-04-01T07:09:59;9.80;;;4.93;;
52956;SDS011;38819;42.692;23.342;2023-04-01T07:15:15;9.68;;;4.90;;
52956;SDS011;38819;42.692;23.342;2023-04-01T07:17:48;6.10;;;4.93;;
52956;SDS011;38819;42.692;23.342;2023-04-01T07:20:25;12.85;;;5.18;;
52956;SDS011;38819;42.692;23.342;2023-04-01T07:22:56;15.02;;;5.50;;
52956;SDS011;38819;42.692;23.342;2023-04-01T07:25:24;14.82;;;5.13;;
52956;SDS011;38819;42.692;23.342;2023-04-01T07:28:12;25.58;;;6.03;;
52956;SDS011;38819;42.692;23.342;2023-04-01T07:38:55;10.88;;;4.80;;
52956;SDS011;38819;42.692;23.342;2023-04-01T07:51:53;18.40;;;5.07;;
52956;SDS011;38819;42.692;23.342;2023-04-01T07:57:03;19.58;;;5.05;;
52956;SDS011;38819;42.692;23.342;2023-04-01T08:05:29;17.98;;;3.97;;
52956;SDS011;38819;42.692;23.342;2023-04-01T08:08:19;7.72;;;4.18;;
52956;SDS011;38819;42.692;23.342;2023-04-01T08:11:04;11.10;;;3.70;;
52956;SDS011;38819;42.692;23.342;2023-04-01T08:16:35;9.75;;;4.35;;
52956;SDS011;38819;42.692;23.342;2023-04-01T08:22:02;12.23;;;4.80;;
52956;SDS011;38819;42.692;23.342;2023-04-01T08:24:40;10.30;;;5.47;;
52956;SDS011;38819;42.692;23.342;2023-04-01T08:27:24;9.15;;;4.68;;
52956;SDS011;38819;42.692;23.342;2023-04-01T08:30:01;15.18;;;4.95;;
52956;SDS011;38819;42.692;23.342;2023-04-01T08:32:31;12.30;;;5.43;;
52956;SDS011;38819;42.692;23.342;2023-04-01T08:35:11;11.20;;;5.00;;
52956;SDS011;38819;42.692;23.342;2023-04-01T08:37:45;9.65;;;4.25;;
52956;SDS011;38819;42.692;23.342;2023-04-01T08:40:25;13.53;;;5.43;;
52956;SDS011;38819;42.692;23.342;2023-04-01T08:43:12;12.35;;;5.00;;
52956;SDS011;38819;42.692;23.342;2023-04-01T08:54:28;9.77;;;4.50;;
52956;SDS011;38819;42.692;23.342;2023-04-01T09:16:44;8.35;;;2.15;;
52956;SDS011;38819;42.692;23.342;2023-04-01T09:33:53;4.43;;;2.22;;
52956;SDS011;38819;42.692;23.342;2023-04-01T09:36:43;9.48;;;3.13;;
52956;SDS011;38819;42.692;23.342;2023-04-01T09:44:59;7.28;;;2.92;;
52956;SDS011;38819;42.692;23.342;2023-04-01T09:58:11;18.85;;;3.60;;
52956;SDS011;38819;42.692;23.342;2023-04-01T10:39:34;9.10;;;4.40;;
52956;SDS011;38819;42.692;23.342;2023-04-01T10:42:27;10.15;;;4.45;;
52956;SDS011;38819;42.692;23.342;2023-04-01T10:48:17;14.07;;;5.07;;
52956;SDS011;38819;42.692;23.342;2023-04-01T10:56:39;11.80;;;4.55;;
52956;SDS011;38819;42.692;23.342;2023-04-01T10:59:17;17.27;;;5.40;;
52956;SDS011;38819;42.692;23.342;2023-04-01T11:05:26;12.95;;;4.20;;
52956;SDS011;38819;42.692;23.342;2023-04-01T11:16:53;12.50;;;4.55;;
52956;SDS011;38819;42.692;23.342;2023-04-01T11:25:17;18.50;;;5.65;;
52956;SDS011;38819;42.692;23.342;2023-04-01T11:44:22;11.15;;;2.45;;
52956;SDS011;38819;42.692;23.342;2023-04-01T11:46:59;5.75;;;2.55;;
52956;SDS011;38819;42.692;23.342;2023-04-01T11:52:18;10.20;;;2.88;;
52956;SDS011;38819;42.692;23.342;2023-04-01T11:57:51;11.80;;;2.90;;
52956;SDS011;38819;42.692;23.342;2023-04-01T12:00:40;7.90;;;2.88;;
52956;SDS011;38819;42.692;23.342;2023-04-01T12:06:23;10.57;;;3.53;;
52956;SDS011;38819;42.692;23.342;2023-04-01T12:11:34;12.70;;;4.47;;
52956;SDS011;38819;42.692;23.342;2023-04-01T12:19:47;12.60;;;4.40;;
52956;SDS011;38819;42.692;23.342;2023-04-01T12:38:05;3.78;;;2.60;;
52956;SDS011;38819;42.692;23.342;2023-04-01T12:43:44;7.00;;;2.63;;
52956;SDS011;38819;42.692;23.342;2023-04-01T12:46:47;6.78;;;3.38;;
52956;SDS011;38819;42.692;23.342;2023-04-01T13:01:19;5.75;;;2.75;;
52956;SDS011;38819;42.692;23.342;2023-04-01T13:07:10;6.03;;;2.97;;
52956;SDS011;38819;42.692;23.342;2023-04-01T13:15:17;5.88;;;3.33;;
52956;SDS011;38819;42.692;23.342;2023-04-01T13:23:24;8.25;;;4.95;;
52956;SDS011;38819;42.692;23.342;2023-04-01T13:26:10;10.20;;;4.88;;
52956;SDS011;38819;42.692;23.342;2023-04-01T13:29:01;12.20;;;4.63;;
52956;SDS011;38819;42.692;23.342;2023-04-01T13:48:27;9.90;;;5.47;;
52956;SDS011;38819;42.692;23.342;2023-04-01T13:56:45;14.52;;;4.47;;
52956;SDS011;38819;42.692;23.342;2023-04-01T14:02:14;10.75;;;4.32;;
52956;SDS011;38819;42.692;23.342;2023-04-01T14:13:01;8.52;;;3.53;;
52956;SDS011;38819;42.692;23.342;2023-04-01T14:18:37;7.20;;;3.65;;
52956;SDS011;38819;42.692;23.342;2023-04-01T14:27:01;7.47;;;3.08;;
52956;SDS011;38819;42.692;23.342;2023-04-01T14:41:20;6.25;;;2.60;;
52956;SDS011;38819;42.692;23.342;2023-04-01T14:51:40;5.97;;;3.90;;
52956;SDS011;38819;42.692;23.342;2023-04-01T14:54:16;12.98;;;3.65;;
52956;SDS011;38819;42.692;23.342;2023-04-01T14:56:49;10.23;;;4.28;;
52956;SDS011;38819;42.692;23.342;2023-04-01T14:59:27;4.43;;;3.13;;
52956;SDS011;38819;42.692;23.342;2023-04-01T15:04:41;8.65;;;2.75;;
52956;SDS011;38819;42.692;23.342;2023-04-01T15:18:09;3.13;;;2.55;;
52956;SDS011;38819;42.692;23.342;2023-04-01T15:26:09;7.10;;;3.25;;
52956;SDS011;38819;42.692;23.342;2023-04-01T15:31:50;11.95;;;3.38;;
52956;SDS011;38819;42.692;23.342;2023-04-01T15:40:05;14.75;;;3.70;;
52956;SDS011;38819;42.692;23.342;2023-04-01T16:04:56;3.67;;;2.95;;
52956;SDS011;38819;42.692;23.342;2023-04-01T16:13:24;6.20;;;4.03;;
52956;SDS011;38819;42.692;23.342;2023-04-01T16:29:43;4.38;;;3.55;;
52956;SDS011;38819;42.692;23.342;2023-04-01T16:32:21;5.75;;;4.40;;
52956;SDS011;38819;42.692;23.342;2023-04-01T16:37:53;3.67;;;3.22;;
52956;SDS011;38819;42.692;23.342;2023-04-01T16:50:59;5.38;;;3.58;;
52956;SDS011;38819;42.692;23.342;2023-04-01T16:54:00;3.20;;;2.47;;
52956;SDS011;38819;42.692;23.342;2023-04-01T16:56:39;2.50;;;2.30;;
52956;SDS011;38819;42.692;23.342;2023-04-01T17:02:10;4.47;;;4.05;;
52956;SDS011;38819;42.692;23.342;2023-04-01T17:16:46;2.10;;;1.90;;
52956;SDS011;38819;42.692;23.342;2023-04-01T17:35:40;3.25;;;2.83;;
52956;SDS011;38819;42.692;23.342;2023-04-01T17:41:19;3.33;;;2.65;;
52956;SDS011;38819;42.692;23.342;2023-04-01T18:08:21;3.85;;;2.72;;
52956;SDS011;38819;42.692;23.342;2023-04-01T18:22:42;2.17;;;1.92;;
52956;SDS011;38819;42.692;23.342;2023-04-01T18:28:22;4.45;;;2.00;;
52956;SDS011;38819;42.692;23.342;2023-04-01T18:33:31;2.58;;;2.17;;
52956;SDS011;38819;42.692;23.342;2023-04-01T18:38:48;2.05;;;1.95;;
52956;SDS011;38819;42.692;23.342;2023-04-01T18:41:15;2.00;;;1.90;;
52956;SDS011;38819;42.692;23.342;2023-04-01T18:49:40;2.63;;;2.42;;
52956;SDS011;38819;42.692;23.342;2023-04-01T19:01:22;3.97;;;2.47;;
52956;SDS011;38819;42.692;23.342;2023-04-01T19:09:48;2.55;;;2.20;;
52956;SDS011;38819;42.692;23.342;2023-04-01T19:25:46;4.22;;;1.92;;
52956;SDS011;38819;42.692;23.342;2023-04-01T19:28:19;4.05;;;2.30;;
52956;SDS011;38819;42.692;23.342;2023-04-01T19:30:58;4.10;;;2.13;;
52956;SDS011;38819;42.692;23.342;2023-04-01T19:33:42;1.98;;;1.80;;
52956;SDS011;38819;42.692;23.342;2023-04-01T19:42:00;2.13;;;1.90;;
52956;SDS011;38819;42.692;23.342;2023-04-01T19:50:30;2.55;;;2.00;;
52956;SDS011;38819;42.692;23.342;2023-04-01T19:53:13;1.67;;;1.58;;
52956;SDS011;38819;42.692;23.342;2023-04-01T19:56:35;2.25;;;1.77;;
52956;SDS011;38819;42.692;23.342;2023-04-01T20:02:18;2.42;;;2.15;;
52956;SDS011;38819;42.692;23.342;2023-04-01T20:04:55;3.35;;;1.90;;
52956;SDS011;38819;42.692;23.342;2023-04-01T20:07:26;1.30;;;1.20;;
52956;SDS011;38819;42.692;23.342;2023-04-01T20:16:06;6.63;;;1.83;;
52956;SDS011;38819;42.692;23.342;2023-04-01T20:18:34;1.55;;;1.45;;
52956;SDS011;38819;42.692;23.342;2023-04-01T20:21:16;4.22;;;2.15;;
52956;SDS011;38819;42.692;23.342;2023-04-01T20:23:50;3.30;;;2.20;;
52956;SDS011;38819;42.692;23.342;2023-04-01T20:26:34;4.05;;;2.08;;
52956;SDS011;38819;42.692;23.342;2023-04-01T20:29:27;5.22;;;2.65;;
52956;SDS011;38819;42.692;23.342;2023-04-01T20:32:27;4.17;;;2.90;;
52956;SDS011;38819;42.692;23.342;2023-04-01T20:37:30;5.60;;;2.53;;
52956;SDS011;38819;42.692;23.342;2023-04-01T20:51:30;1.73;;;1.63;;
52956;SDS011;38819;42.692;23.342;2023-04-01T20:54:23;1.45;;;1.35;;
52956;SDS011;38819;42.692;23.342;2023-04-01T21:08:36;1.67;;;1.58;;
52956;SDS011;38819;42.692;23.342;2023-04-01T21:16:26;1.70;;;1.60;;
52956;SDS011;38819;42.692;23.342;2023-04-01T21:21:33;2.08;;;1.85;;
52956;SDS011;38819;42.692;23.342;2023-04-01T21:35:50;2.00;;;1.83;;
52956;SDS011;38819;42.692;23.342;2023-04-01T21:38:42;1.45;;;1.20;;
52956;SDS011;38819;42.692;23.342;2023-04-01T21:41:34;1.45;;;1.35;;
52956;SDS011;38819;42.692;23.342;2023-04-01T21:46:44;1.25;;;1.23;;
52956;SDS011;38819;42.692;23.342;2023-04-01T21:55:33;1.17;;;1.10;;
52956;SDS011;38819;42.692;23.342;2023-04-01T21:58:38;1.00;;;1.00;;
52956;SDS011;38819;42.692;23.342;2023-04-01T22:03:46;2.75;;;1.23;;
52956;SDS011;38819;42.692;23.342;2023-04-01T22:06:47;2.10;;;1.10;;
52956;SDS011;38819;42.692;23.342;2023-04-01T22:14:57;1.88;;;1.30;;
52956;SDS011;38819;42.692;23.342;2023-04-01T22:17:51;1.38;;;1.27;;
52956;SDS011;38819;42.692;23.342;2023-04-01T22:28:34;1.60;;;1.45;;
52956;SDS011;38819;42.692;23.342;2023-04-01T22:31:14;1.52;;;1.42;;
52956;SDS011;38819;42.692;23.342;2023-04-01T22:39:26;4.38;;;1.70;;
52956;SDS011;38819;42.692;23.342;2023-04-01T22:53:04;1.30;;;1.20;;
52956;SDS011;38819;42.692;23.342;2023-04-01T22:55:41;1.40;;;1.30;;
52956;SDS011;38819;42.692;23.342;2023-04-01T22:58:12;2.42;;;0.98;;
52956;SDS011;38819;42.692;23.342;2023-04-01T23:00:43;1.35;;;1.20;;
52956;SDS011;38819;42.692;23.342;2023-04-01T23:05:59;1.17;;;1.08;;
52956;SDS011;38819;42.692;23.342;2023-04-01T23:25:00;2.50;;;1.40;;
52956;SDS011;38819;42.692;23.342;2023-04-01T23:27:40;1.25;;;1.05;;
52956;SDS011;38819;42.692;23.342;2023-04-01T23:33:26;1.85;;;1.60;;
52956;SDS011;38819;42.692;23.342;2023-04-01T23:35:56;4.38;;;1.33;;
52956;SDS011;38819;42.692;23.342;2023-04-01T23:38:34;2.25;;;1.10;;
52956;SDS011;38819;42.692;23.342;2023-04-01T23:41:02;3.25;;;1.30;;
52956;SDS011;38819;42.692;23.342;2023-04-01T23:43:31;1.30;;;1.20;;
52956;SDS011;38819;42.692;23.342;2023-04-01T23:46:06;1.58;;;1.33;;
52956;SDS011;38819;42.692;23.342;2023-04-01T23:48:35;2.93;;;1.70;;
52956;SDS011;38819;42.692;23.342;2023-04-01T23:51:03;3.65;;;1.65;;
52956;SDS011;38819;42.692;23.342;2023-04-01T23:53:38;1.73;;;1.23;;
52956;SDS011;38819;42.692;23.342;2023-04-01T23:56:09;4.03;;;1.05;;
